Time;durP1;ratioP1;P1;durP2;ratioP2;P2;SDS_P1;SDS_P2;PMS_P1;PMS_P2;Temp;Humidity;BMP_temperature;BMP_pressure;BME280_temperature;BME280_humidity;BME280_pressure;Samples;Min_cycle;Max_cycle;Signal;HPM_P1;HPM_P2
2021/10/25 00:00:25;;;;;;;;;15.00;12.25;;;;;21.18;41.45;101613.09;5009836;28;51193;-53
2021/10/25 00:02:50;;;;;;;;;16.25;13.75;;;;;21.18;41.44;101609.50;5011497;28;51251;-52
2021/10/25 00:05:16;;;;;;;;;11.75;11.75;;;;;21.17;41.40;101610.53;5012760;28;51952;-52
2021/10/25 00:07:41;;;;;;;;;10.75;9.75;;;;;21.15;41.56;101607.97;5013885;28;51052;-50
2021/10/25 00:10:07;;;;;;;;;12.75;12.75;;;;;21.13;41.41;101604.59;5010207;28;51026;-50
2021/10/25 00:12:33;;;;;;;;;14.00;12.00;;;;;21.13;41.61;101610.09;5013890;28;51119;-48
2021/10/25 00:14:59;;;;;;;;;14.50;12.50;;;;;21.12;41.73;101596.53;5012331;28;51763;-50
2021/10/25 00:17:24;;;;;;;;;14.75;12.75;;;;;21.10;41.33;101605.00;5003437;28;51082;-52
2021/10/25 00:19:50;;;;;;;;;14.50;14.50;;;;;21.10;41.67;101613.28;5010531;28;51367;-49
2021/10/25 00:22:16;;;;;;;;;12.25;11.75;;;;;21.10;41.72;101612.44;5006345;28;51286;-51
2021/10/25 00:24:41;;;;;;;;;11.50;11.50;;;;;21.09;41.67;101602.47;5011009;28;51867;-49
2021/10/25 00:27:06;;;;;;;;;15.50;13.75;;;;;21.06;41.37;101592.72;5013923;28;51137;-47
2021/10/25 00:29:32;;;;;;;;;16.75;15.00;;;;;21.05;41.48;101599.28;5004841;28;51157;-49
2021/10/25 00:31:57;;;;;;;;;14.50;12.50;;;;;21.05;41.81;101599.28;5007297;28;51246;-48
2021/10/25 00:34:23;;;;;;;;;16.00;12.75;;;;;21.05;41.60;101591.03;5009346;28;51042;-50
2021/10/25 00:36:49;;;;;;;;;12.25;12.25;;;;;21.03;41.88;101593.13;5010630;28;51588;-50
2021/10/25 00:39:14;;;;;;;;;16.25;13.75;;;;;21.02;41.58;101589.50;5005558;28;51159;-46
2021/10/25 00:41:39;;;;;;;;;13.25;11.50;;;;;21.02;41.70;101588.66;5010263;28;51047;-48
2021/10/25 00:44:05;;;;;;;;;12.25;12.25;;;;;20.99;42.06;101581.69;5007023;28;51966;-49
2021/10/25 00:46:31;;;;;;;;;15.50;14.25;;;;;21.00;41.72;101577.88;5005884;28;51006;-49
2021/10/25 00:48:56;;;;;;;;;14.25;11.50;;;;;21.00;41.73;101582.53;5013952;28;51098;-49
2021/10/25 00:51:22;;;;;;;;;11.75;11.50;;;;;20.99;41.72;101575.31;5002302;28;51332;-51
2021/10/25 00:53:47;;;;;;;;;16.25;11.25;;;;;20.98;41.91;101576.38;5005305;28;52511;-47
2021/10/25 00:56:13;;;;;;;;;11.50;10.00;;;;;20.96;41.69;101573.84;5010291;28;51041;-46
2021/10/25 00:58:38;;;;;;;;;12.75;12.75;;;;;20.97;42.02;101574.69;5008066;28;51043;-50
2021/10/25 01:01:04;;;;;;;;;11.25;9.50;;;;;20.95;41.75;101574.06;5005353;28;51090;-52
2021/10/25 01:03:30;;;;;;;;;11.50;10.25;;;;;20.95;41.70;101576.81;4987806;28;51573;-50
2021/10/25 01:05:56;;;;;;;;;13.25;12.00;;;;;20.94;41.75;101578.69;5009737;28;51129;-51
2021/10/25 01:08:22;;;;;;;;;13.75;11.25;;;;;20.94;41.55;101586.09;5005707;28;51590;-51
2021/10/25 01:10:47;;;;;;;;;11.50;10.25;;;;;20.92;42.21;101590.97;5007190;28;51086;-45
2021/10/25 01:13:14;;;;;;;;;10.00;10.00;;;;;20.90;42.02;101585.66;5005077;28;51226;-51
2021/10/25 01:15:39;;;;;;;;;14.00;11.50;;;;;20.91;42.31;101584.63;5005123;28;51289;-49
2021/10/25 01:18:06;;;;;;;;;11.75;11.25;;;;;20.90;42.08;101584.81;5006182;28;51027;-52
2021/10/25 01:20:32;;;;;;;;;12.25;10.50;;;;;20.89;42.31;101581.22;5007821;28;51111;-52
2021/10/25 01:23:00;;;;;;;;;13.75;13.25;;;;;20.89;41.83;101586.72;5013403;28;51117;-52
2021/10/25 01:25:27;;;;;;;;;14.75;10.25;;;;;20.88;42.19;101586.94;5004932;28;51430;-47
2021/10/25 01:27:53;;;;;;;;;11.75;11.75;;;;;20.88;42.02;101584.19;5007116;28;51002;-52
2021/10/25 01:30:18;;;;;;;;;13.00;10.50;;;;;20.87;41.94;101593.50;5002987;28;51354;-46
2021/10/25 01:32:45;;;;;;;;;10.75;10.50;;;;;20.86;42.15;101589.06;5005672;28;51026;-50
2021/10/25 01:35:11;;;;;;;;;9.00;9.00;;;;;20.86;42.11;101594.56;5008331;28;51113;-48
2021/10/25 01:37:36;;;;;;;;;14.50;13.00;;;;;20.86;41.80;101589.91;5003920;28;51070;-50
2021/10/25 01:40:04;;;;;;;;;11.00;9.25;;;;;20.85;42.36;101585.47;5007627;28;51415;-49
2021/10/25 01:42:29;;;;;;;;;11.75;11.00;;;;;20.84;42.08;101583.75;5011617;28;51298;-49
2021/10/25 01:44:55;;;;;;;;;10.00;10.00;;;;;20.84;42.47;101577.38;5007724;28;51137;-47
2021/10/25 01:47:20;;;;;;;;;16.50;14.50;;;;;20.82;42.29;101574.84;5004720;28;51847;-48
2021/10/25 01:49:46;;;;;;;;;9.50;8.75;;;;;20.82;42.36;101580.34;5003362;28;50963;-48
2021/10/25 01:52:13;;;;;;;;;11.25;10.00;;;;;20.83;42.13;101578.44;5003461;28;51041;-53
2021/10/25 01:54:39;;;;;;;;;14.00;11.50;;;;;20.80;42.27;101576.09;5007980;28;51147;-49
2021/10/25 01:57:07;;;;;;;;;13.50;10.50;;;;;20.79;41.91;101572.50;5004605;28;51333;-51
2021/10/25 01:59:33;;;;;;;;;11.25;11.00;;;;;20.79;42.08;101575.25;5002183;28;51287;-49
2021/10/25 02:01:59;;;;;;;;;8.75;8.25;;;;;20.78;42.03;101576.31;5002262;28;51719;-48
2021/10/25 02:04:24;;;;;;;;;9.25;9.25;;;;;20.78;42.38;101575.47;5005729;28;51110;-45
2021/10/25 02:06:50;;;;;;;;;12.00;11.00;;;;;20.78;41.89;101572.72;5007297;28;50987;-50
2021/10/25 02:09:15;;;;;;;;;11.00;10.00;;;;;20.77;41.94;101571.03;5005961;28;51099;-45
2021/10/25 02:11:40;;;;;;;;;11.00;10.00;;;;;20.77;42.10;101562.75;5011555;28;51102;-51
2021/10/25 02:14:06;;;;;;;;;8.75;8.00;;;;;20.75;42.00;101569.31;5005054;28;51055;-48
2021/10/25 02:16:31;;;;;;;;;10.00;9.75;;;;;20.75;42.13;101569.31;5001033;28;51146;-50
2021/10/25 02:18:57;;;;;;;;;10.75;9.25;;;;;20.74;42.38;101559.38;5008393;28;51002;-46
2021/10/25 02:21:22;;;;;;;;;11.25;9.75;;;;;20.73;42.29;101557.66;5005172;28;51925;-50
2021/10/25 02:23:48;;;;;;;;;9.00;8.75;;;;;20.73;42.04;101554.03;5008976;28;51280;-50
2021/10/25 02:26:13;;;;;;;;;11.75;11.75;;;;;20.72;41.99;101555.94;5008562;28;51100;-45
2021/10/25 02:28:39;;;;;;;;;10.25;9.00;;;;;20.71;42.11;101553.41;5006814;28;51335;-48
2021/10/25 02:31:05;;;;;;;;;9.00;9.00;;;;;20.71;42.11;101545.16;5003519;28;52044;-49
2021/10/25 02:33:31;;;;;;;;;9.25;8.75;;;;;20.70;42.28;101548.97;5006497;28;51366;-48
2021/10/25 02:35:56;;;;;;;;;12.25;10.25;;;;;20.70;42.14;101557.22;5004152;28;51115;-50
2021/10/25 02:38:21;;;;;;;;;7.75;7.75;;;;;20.69;42.05;101553.63;5007038;28;51244;-51
2021/10/25 02:40:47;;;;;;;;;12.75;12.00;;;;;20.68;41.89;101554.69;5013695;28;51875;-50
2021/10/25 02:43:12;;;;;;;;;9.00;8.00;;;;;20.67;42.15;101550.22;5003877;28;51266;-48
2021/10/25 02:45:38;;;;;;;;;13.25;10.00;;;;;20.67;42.35;101553.00;5010311;28;51185;-51
2021/10/25 02:48:05;;;;;;;;;11.75;11.50;;;;;20.67;42.39;101539.22;5003759;28;51134;-45
2021/10/25 02:50:31;;;;;;;;;9.50;8.00;;;;;20.67;42.30;101541.13;5008192;28;52503;-51
2021/10/25 02:52:56;;;;;;;;;9.00;8.25;;;;;20.66;42.10;101531.19;5006975;28;51102;-50
2021/10/25 02:55:22;;;;;;;;;10.25;9.50;;;;;20.65;42.29;101524.81;5012856;28;51026;-50
2021/10/25 02:57:47;;;;;;;;;9.00;9.00;;;;;20.64;42.13;101522.28;5007710;28;51000;-51
2021/10/25 03:00:15;;;;;;;;;9.00;8.25;;;;;20.64;42.44;101531.38;5004975;28;51022;-49
2021/10/25 03:02:43;;;;;;;;;12.00;8.50;;;;;20.64;42.36;101523.13;5007125;28;51392;-51
2021/10/25 03:05:09;;;;;;;;;10.25;9.00;;;;;20.63;42.27;101517.81;5007889;28;51073;-50
2021/10/25 03:07:34;;;;;;;;;9.25;9.00;;;;;20.64;42.27;101525.03;4996895;28;51331;-46
2021/10/25 03:09:59;;;;;;;;;10.25;9.25;;;;;20.63;42.08;101523.31;5003506;28;51039;-46
2021/10/25 03:12:26;;;;;;;;;10.25;10.25;;;;;20.62;42.10;101524.38;5010692;28;51079;-49
2021/10/25 03:14:52;;;;;;;;;10.00;7.25;;;;;20.62;42.17;101524.38;4998567;28;51354;-51
2021/10/25 03:17:17;;;;;;;;;8.75;6.75;;;;;20.61;41.94;101515.25;5010272;28;51107;-49
2021/10/25 03:19:43;;;;;;;;;8.75;8.75;;;;;20.60;41.98;101516.31;5003066;28;51063;-48
2021/10/25 03:22:09;;;;;;;;;10.25;8.75;;;;;20.59;42.24;101517.38;4988713;28;51273;-50
2021/10/25 03:24:34;;;;;;;;;7.25;7.25;;;;;20.59;42.52;101531.13;5012977;28;51052;-51
2021/10/25 03:27:01;;;;;;;;;10.00;8.75;;;;;20.58;42.49;101526.69;5008182;28;51412;-52
2021/10/25 03:29:27;;;;;;;;;7.00;7.00;;;;;20.59;42.37;101528.38;5008466;28;51844;-51
2021/10/25 03:31:53;;;;;;;;;9.25;8.75;;;;;20.58;42.09;101531.34;5007884;28;51042;-49
2021/10/25 03:34:18;;;;;;;;;9.75;9.00;;;;;20.58;42.13;101537.72;5011700;28;51795;-50
2021/10/25 03:36:46;;;;;;;;;11.00;8.75;;;;;20.57;42.29;101527.75;5013163;28;51290;-49
2021/10/25 03:39:13;;;;;;;;;9.75;8.50;;;;;20.57;42.38;101519.50;5013410;28;51742;-46
2021/10/25 03:41:42;;;;;;;;;9.75;7.75;;;;;20.57;42.29;101527.75;5006619;28;51424;-51
2021/10/25 03:49:14;;;;;;;;;8.75;7.75;;;;;20.54;42.32;101525.41;5004166;28;52175;-52
2021/10/25 03:51:42;;;;;;;;;8.75;8.25;;;;;20.53;42.56;101529.22;5011586;28;51578;-53
2021/10/25 04:02:00;;;;;;;;;11.00;8.25;;;;;20.52;42.05;101521.16;5003827;28;51089;-50
2021/10/25 04:29:01;;;;;;;;;7.25;6.75;;;;;20.45;42.15;101523.91;5010277;28;51234;-51
2021/10/25 04:31:27;;;;;;;;;9.00;6.75;;;;;20.45;42.47;101515.66;5004328;28;51373;-51
2021/10/25 04:33:52;;;;;;;;;11.50;9.75;;;;;20.44;42.46;101520.31;5002221;28;51014;-49
2021/10/25 04:36:17;;;;;;;;;7.75;7.00;;;;;20.44;42.32;101527.72;5011183;28;51094;-48
2021/10/25 04:38:43;;;;;;;;;9.00;8.00;;;;;20.42;42.81;101514.13;5011682;28;51093;-49
2021/10/25 04:41:08;;;;;;;;;3.25;3.25;;;;;20.43;42.48;101523.25;5013712;28;51991;-52
2021/10/25 04:43:34;;;;;;;;;8.75;6.25;;;;;20.42;42.70;101516.88;4993178;28;51341;-47
2021/10/25 04:45:59;;;;;;;;;8.50;8.50;;;;;20.42;42.49;101519.63;5000457;28;51055;-49
2021/10/25 04:48:25;;;;;;;;;8.00;8.00;;;;;20.42;42.78;101519.63;5011316;28;51434;-50
2021/10/25 04:50:50;;;;;;;;;7.25;7.25;;;;;20.42;42.36;101510.50;5008878;28;51093;-49
2021/10/25 04:53:15;;;;;;;;;7.00;7.00;;;;;20.41;42.72;101503.31;5012874;28;51175;-49
2021/10/25 04:55:41;;;;;;;;;8.25;7.00;;;;;20.41;42.30;101509.66;5008276;28;51282;-47
2021/10/25 04:58:06;;;;;;;;;9.25;8.25;;;;;20.41;42.71;101517.06;5006685;28;51375;-49
2021/10/25 05:00:32;;;;;;;;;9.50;8.75;;;;;20.41;42.33;101517.06;5004804;28;51027;-49
2021/10/25 05:02:59;;;;;;;;;9.50;7.50;;;;;20.40;42.64;101531.88;5005001;28;51110;-48
2021/10/25 05:05:24;;;;;;;;;8.00;7.00;;;;;20.40;42.41;101523.63;5007728;28;51216;-49
2021/10/25 05:07:50;;;;;;;;;6.50;5.75;;;;;20.40;42.89;101518.13;5003343;28;51023;-48
2021/10/25 05:10:15;;;;;;;;;8.00;8.00;;;;;20.39;42.77;101519.19;5006538;28;51078;-48
2021/10/25 05:12:40;;;;;;;;;6.00;6.00;;;;;20.39;42.68;101513.66;5008357;28;51109;-48
2021/10/25 05:15:06;;;;;;;;;10.00;9.75;;;;;20.37;42.98;101516.63;4985528;28;51055;-45
2021/10/25 05:17:32;;;;;;;;;11.25;8.75;;;;;20.38;42.41;101517.47;5005511;28;51107;-49
2021/10/25 05:19:57;;;;;;;;;10.75;10.25;;;;;20.38;42.38;101520.22;5005392;28;51018;-44
2021/10/25 05:22:23;;;;;;;;;12.00;11.50;;;;;20.36;42.20;101533.34;5006676;28;51177;-48
2021/10/25 05:24:49;;;;;;;;;12.25;12.25;;;;;20.33;41.83;101520.88;5008251;28;51269;-47
2021/10/25 05:27:16;;;;;;;;;21.00;16.25;;;;;20.30;41.91;101523.16;5009917;28;51294;-49
2021/10/25 05:29:41;;;;;;;;;19.50;16.50;;;;;20.29;41.76;101529.72;5007004;28;52099;-48
2021/10/25 05:32:07;;;;;;;;;17.50;16.00;;;;;20.26;41.81;101516.38;5004625;28;51138;-47
2021/10/25 05:34:33;;;;;;;;;16.00;15.00;;;;;20.23;41.83;101520.41;5004175;28;51161;-45
2021/10/25 05:36:59;;;;;;;;;16.25;15.00;;;;;20.19;41.59;101506.19;5003702;28;51147;-44
2021/10/25 05:39:24;;;;;;;;;17.25;13.75;;;;;20.17;41.75;101493.69;5003142;28;51884;-48
2021/10/25 05:41:50;;;;;;;;;14.00;12.75;;;;;20.16;41.84;101492.84;5008495;28;51320;-47
2021/10/25 05:44:15;;;;;;;;;21.00;14.75;;;;;20.21;41.88;101477.63;5009212;28;51515;-51
2021/10/25 05:46:41;;;;;;;;;13.25;12.00;;;;;20.28;41.97;101486.75;5004916;28;51207;-51
2021/10/25 05:49:07;;;;;;;;;16.00;13.25;;;;;20.36;42.03;101487.44;5006131;28;52056;-51
2021/10/25 05:51:32;;;;;;;;;12.50;11.50;;;;;20.45;41.92;101490.88;5006738;28;51151;-48
2021/10/25 05:54:02;;;;;;;;;12.25;9.00;;;;;20.53;41.84;101490.69;5008573;28;51204;-49
2021/10/25 05:56:28;;;;;;;;;15.50;12.25;;;;;20.64;41.94;101489.25;5004175;28;51444;-49
2021/10/25 05:58:54;;;;;;;;;13.00;10.75;;;;;20.72;41.97;101498.13;5006623;28;52731;-49
2021/10/25 06:01:22;;;;;;;;;11.50;11.50;;;;;20.80;42.13;101477.81;5007714;28;51106;-49
2021/10/25 06:03:49;;;;;;;;;13.50;11.00;;;;;20.90;42.40;101486.53;5006579;28;51127;-49
2021/10/25 06:06:15;;;;;;;;;11.00;8.00;;;;;21.00;42.66;101486.97;5012711;28;51135;-50
2021/10/25 06:08:40;;;;;;;;;11.00;8.00;;;;;21.09;42.34;101493.13;5003177;28;51662;-50
2021/10/25 06:11:08;;;;;;;;;11.00;10.00;;;;;21.19;42.45;101487.19;4997649;28;51146;-49
2021/10/25 06:13:42;;;;;;;;;9.25;9.25;;;;;21.25;42.43;101473.41;5010601;28;51050;-51
2021/10/25 06:18:35;;;;;;;;;10.50;8.00;;;;;21.43;42.25;101471.94;5002399;28;51249;-48
2021/10/25 06:21:02;;;;;;;;;9.00;8.00;;;;;21.50;42.21;101479.16;5004734;28;51210;-49
2021/10/25 06:23:27;;;;;;;;;7.00;7.00;;;;;21.56;41.84;101480.19;5006702;28;51035;-50
2021/10/25 06:25:52;;;;;;;;;6.00;6.00;;;;;21.62;41.80;101487.63;5000456;28;50972;-52
2021/10/25 06:28:25;;;;;;;;;10.00;6.50;;;;;21.69;42.25;101501.41;4993066;28;51194;-52
2021/10/25 06:30:58;;;;;;;;;5.75;5.75;;;;;21.77;41.98;101507.50;5002902;28;51429;-52
2021/10/25 06:33:23;;;;;;;;;8.00;8.00;;;;;21.85;41.66;101504.53;4997868;28;51378;-46
2021/10/25 06:36:06;;;;;;;;;8.75;8.75;;;;;21.93;41.68;101506.22;5008777;28;51211;-51
2021/10/25 06:38:37;;;;;;;;;11.00;8.25;;;;;21.98;41.65;101500.03;5002383;28;52870;-49
2021/10/25 06:41:03;;;;;;;;;10.00;10.00;;;;;22.02;41.98;101490.28;5004357;28;51489;-52
2021/10/25 06:43:29;;;;;;;;;9.75;8.00;;;;;22.03;41.79;101500.25;4982582;28;51315;-47
2021/10/25 06:45:55;;;;;;;;;8.00;7.25;;;;;22.00;41.87;101517.25;5008884;28;50979;-48
2021/10/25 06:48:24;;;;;;;;;8.00;8.00;;;;;21.97;41.31;101532.31;5009431;28;51816;-49
2021/10/25 06:50:51;;;;;;;;;10.50;9.25;;;;;21.93;41.43;101514.50;5005550;28;51048;-47
2021/10/25 06:53:17;;;;;;;;;11.50;10.00;;;;;21.88;41.62;101517.91;4995587;28;51297;-48
2021/10/25 06:55:44;;;;;;;;;9.75;9.25;;;;;21.83;41.37;101512.19;4995878;28;50992;-48
2021/10/25 06:58:10;;;;;;;;;10.75;8.50;;;;;21.77;41.42;101518.53;4995311;28;51963;-48
2021/10/25 07:00:36;;;;;;;;;13.00;9.00;;;;;21.73;41.24;101522.81;4995942;28;51537;-50
2021/10/25 07:03:01;;;;;;;;;10.00;9.25;;;;;21.69;41.60;101527.06;4995894;28;51040;-51
2021/10/25 07:05:33;;;;;;;;;10.75;8.00;;;;;21.66;41.39;101524.72;4995832;28;51201;-49
2021/10/25 07:07:59;;;;;;;;;8.25;8.25;;;;;21.62;41.21;101526.22;4995130;28;51244;-49
2021/10/25 07:10:24;;;;;;;;;9.50;8.00;;;;;21.58;41.87;101525.81;4995532;28;51147;-48
2021/10/25 07:12:50;;;;;;;;;10.50;8.25;;;;;21.55;41.37;101525.38;4995652;28;51115;-50
2021/10/25 07:15:17;;;;;;;;;10.50;8.00;;;;;21.53;41.70;101527.50;4995908;28;51185;-50
2021/10/25 07:23:09;;;;;;;;;8.50;6.50;;;;;21.42;41.46;101537.25;4995768;28;51080;-50
2021/10/25 08:06:45;;;;;;;;;10.00;9.00;;;;;20.92;41.60;101571.69;5014660;28;51030;-50
2021/10/25 08:11:52;;;;;;;;;7.25;7.25;;;;;20.88;41.79;101575.94;5017956;28;51903;-49
2021/10/25 08:14:17;;;;;;;;;9.00;9.00;;;;;20.85;41.94;101584.63;5018003;28;50905;-48
2021/10/25 08:16:48;;;;;;;;;12.50;10.25;;;;;20.84;42.06;101582.88;5017837;28;51146;-49
2021/10/25 08:19:29;;;;;;;;;11.75;10.00;;;;;20.82;42.17;101574.00;5017865;28;50990;-44
2021/10/25 08:22:08;;;;;;;;;9.25;9.25;;;;;20.80;42.21;101565.09;5017789;28;51350;-51
2021/10/25 08:24:39;;;;;;;;;10.50;9.50;;;;;20.79;42.16;101564.25;5017881;28;51162;-49
2021/10/25 08:27:06;;;;;;;;;11.50;9.25;;;;;20.77;42.02;101565.53;5006936;28;51080;-53
2021/10/25 08:29:35;;;;;;;;;14.50;11.50;;;;;20.77;41.86;101568.28;4998464;28;51031;-49
2021/10/25 08:39:58;;;;;;;;;13.50;10.00;;;;;20.71;42.14;101557.00;4997998;28;51385;-50
2021/10/25 08:42:29;;;;;;;;;10.00;9.00;;;;;20.70;42.00;101559.97;4997558;28;51977;-51
2021/10/25 08:45:11;;;;;;;;;9.50;9.25;;;;;20.69;42.21;101558.28;4997529;28;51182;-49
2021/10/25 08:47:40;;;;;;;;;12.00;9.25;;;;;20.68;42.08;101567.59;4998059;28;51634;-49
2021/10/25 08:50:08;;;;;;;;;10.75;10.50;;;;;20.67;42.21;101557.66;4997777;28;50928;-51
2021/10/25 08:52:34;;;;;;;;;8.75;8.50;;;;;20.65;42.00;101560.59;4997572;28;51036;-50
2021/10/25 08:55:05;;;;;;;;;11.75;10.75;;;;;20.65;42.27;101563.38;4997386;28;51043;-50
2021/10/25 08:57:32;;;;;;;;;13.50;10.50;;;;;20.63;42.45;101561.84;4997419;28;51189;-49
2021/10/25 08:59:59;;;;;;;;;9.50;9.00;;;;;20.63;42.10;101559.09;4997587;28;51146;-53
2021/10/25 09:02:27;;;;;;;;;13.50;12.25;;;;;20.62;41.98;101563.75;4997839;28;51091;-49
2021/10/25 09:04:57;;;;;;;;;7.25;4.50;;;;;20.61;41.89;101555.72;5016904;28;51166;-49
2021/10/25 09:07:23;;;;;;;;;10.00;9.00;;;;;20.61;42.28;101566.72;5017225;28;50983;-49
2021/10/25 09:09:48;;;;;;;;;8.25;7.50;;;;;20.60;42.27;101565.88;5017427;28;51182;-51
2021/10/25 09:12:15;;;;;;;;;9.50;9.00;;;;;20.58;42.30;101554.22;5016699;28;50958;-50
2021/10/25 09:14:40;;;;;;;;;8.75;8.75;;;;;20.58;42.05;101547.88;4999157;28;51153;-49
2021/10/25 09:17:08;;;;;;;;;9.25;9.00;;;;;20.57;42.25;101548.94;5017070;28;51069;-51
2021/10/25 09:19:37;;;;;;;;;11.25;10.50;;;;;20.57;42.24;101537.91;5015756;28;51316;-51
2021/10/25 09:22:09;;;;;;;;;9.50;9.00;;;;;20.56;41.97;101539.81;5016855;28;52131;-48
2021/10/25 09:24:35;;;;;;;;;12.00;8.75;;;;;20.56;42.09;101533.47;5016969;28;51150;-49
2021/10/25 09:27:05;;;;;;;;;9.75;8.25;;;;;20.57;42.25;101537.91;5006705;28;51178;-47
2021/10/25 09:29:33;;;;;;;;;9.00;8.00;;;;;20.57;42.33;101533.25;4997356;28;50992;-46
2021/10/25 09:32:11;;;;;;;;;13.75;11.25;;;;;20.58;42.38;101540.47;4996690;28;51789;-48
2021/10/25 09:34:47;;;;;;;;;10.50;9.75;;;;;20.59;42.08;101536.66;4996836;28;51011;-45
2021/10/25 09:37:19;;;;;;;;;8.25;7.50;;;;;20.59;42.23;101536.66;4996810;28;50979;-45
2021/10/25 09:39:49;;;;;;;;;12.25;9.75;;;;;20.59;42.09;101533.91;4996895;28;51021;-45
2021/10/25 09:42:49;;;;;;;;;10.50;9.50;;;;;20.59;42.00;101531.13;4996412;28;51693;-45
2021/10/25 09:50:40;;;;;;;;;10.50;10.50;;;;;20.58;42.13;101526.69;4996664;28;51139;-53
2021/10/25 09:53:08;;;;;;;;;10.00;9.25;;;;;20.57;42.47;101530.50;4995758;28;51738;-52
2021/10/25 09:55:43;;;;;;;;;8.00;8.00;;;;;20.56;42.26;101526.06;4996189;28;51466;-52
2021/10/25 09:58:22;;;;;;;;;9.25;9.25;;;;;20.56;42.14;101542.56;4995973;28;51102;-52
2021/10/25 10:00:48;;;;;;;;;6.50;6.50;;;;;20.56;42.24;101536.22;4996482;28;50961;-45
2021/10/25 10:03:15;;;;;;;;;11.50;10.00;;;;;20.55;42.41;101540.88;4999030;28;50985;-48
2021/10/25 10:05:41;;;;;;;;;9.00;7.00;;;;;20.55;42.67;101538.13;5015818;28;51320;-50
2021/10/25 10:08:11;;;;;;;;;8.00;8.00;;;;;20.54;42.46;101533.69;5015933;28;51169;-50
2021/10/25 10:10:38;;;;;;;;;10.75;8.75;;;;;20.53;42.43;101537.50;5015758;28;51109;-50
2021/10/25 10:13:05;;;;;;;;;11.00;9.75;;;;;20.54;42.39;101538.34;5015462;28;52119;-50
2021/10/25 10:15:31;;;;;;;;;10.50;10.00;;;;;20.53;42.40;101536.63;5015679;28;51342;-49
2021/10/25 10:18:12;;;;;;;;;9.00;5.50;;;;;20.54;42.24;101532.84;5015700;28;51197;-50
2021/10/25 10:20:42;;;;;;;;;9.75;8.00;;;;;20.53;42.41;101545.75;5015986;28;51339;-50
2021/10/25 10:23:11;;;;;;;;;10.75;9.00;;;;;20.53;42.23;101537.50;5015405;28;53032;-50
2021/10/25 10:25:39;;;;;;;;;9.00;8.50;;;;;20.52;42.93;101541.28;5015466;28;50983;-52
2021/10/25 10:28:13;;;;;;;;;9.00;9.00;;;;;20.52;42.23;101551.44;4996662;28;51090;-49
2021/10/25 10:31:11;;;;;;;;;10.00;9.00;;;;;20.52;42.72;101551.44;4995476;28;51141;-51
2021/10/25 10:33:39;;;;;;;;;11.00;7.75;;;;;20.52;42.32;101545.94;4979670;28;51783;-51
2021/10/25 10:36:21;;;;;;;;;10.75;8.75;;;;;20.51;42.42;101550.59;4996036;28;51421;-50
2021/10/25 10:39:16;;;;;;;;;10.00;9.00;;;;;20.51;42.31;101560.75;4995557;28;51090;-52
2021/10/25 10:41:51;;;;;;;;;7.50;7.00;;;;;20.51;42.82;101569.00;4993406;28;51289;-53
2021/10/25 10:44:23;;;;;;;;;8.75;8.75;;;;;20.50;42.54;101562.66;4995248;28;52100;-50
2021/10/25 10:46:57;;;;;;;;;11.00;10.00;;;;;20.50;42.78;101567.31;4995201;28;51354;-52
2021/10/25 10:49:29;;;;;;;;;8.00;7.50;;;;;20.50;42.66;101570.06;4995288;28;51241;-49
2021/10/25 10:52:26;;;;;;;;;9.75;9.50;;;;;20.50;42.76;101559.03;4995388;28;51153;-49
2021/10/25 10:55:10;;;;;;;;;7.50;7.50;;;;;20.48;42.32;101553.75;4994406;28;52047;-50
2021/10/25 11:00:26;;;;;;;;;10.00;9.00;;;;;20.49;43.13;101562.84;4994976;28;51056;-51
2021/10/25 11:02:54;;;;;;;;;8.50;8.50;;;;;20.46;42.86;101564.97;4995209;28;51078;-49
2021/10/25 11:05:41;;;;;;;;;12.25;8.75;;;;;20.46;42.56;101566.88;5014554;28;51981;-50
2021/10/25 11:08:13;;;;;;;;;8.75;7.75;;;;;20.46;42.62;101570.47;4996560;28;51385;-47
2021/10/25 11:10:41;;;;;;;;;9.75;9.00;;;;;20.46;42.64;101562.22;5014949;28;51188;-46
2021/10/25 11:13:15;;;;;;;;;6.50;6.00;;;;;20.45;42.49;101562.44;5015176;28;51278;-49
2021/10/25 11:15:52;;;;;;;;;11.75;7.75;;;;;20.45;42.42;101562.44;5014586;28;51987;-51
2021/10/25 11:18:26;;;;;;;;;9.25;9.25;;;;;20.44;42.61;101552.47;5014417;28;51390;-49
2021/10/25 11:21:05;;;;;;;;;14.25;10.50;;;;;20.43;42.81;101554.38;5014913;28;51034;-52
2021/10/25 11:23:38;;;;;;;;;9.75;8.00;;;;;20.42;42.47;101555.41;5015272;28;50988;-50
2021/10/25 11:26:16;;;;;;;;;8.00;8.00;;;;;20.43;42.80;101556.28;5012230;28;52912;-50
2021/10/25 11:28:57;;;;;;;;;8.75;7.00;;;;;20.42;43.04;101557.28;4994320;28;51078;-49
2021/10/25 11:31:23;;;;;;;;;9.25;9.00;;;;;20.41;42.67;101559.19;4994592;28;51005;-48
2021/10/25 11:33:49;;;;;;;;;9.00;8.00;;;;;20.41;42.92;101550.09;4994860;28;51351;-50
2021/10/25 11:36:15;;;;;;;;;10.25;7.75;;;;;20.41;43.06;101547.34;4994365;28;51683;-51
2021/10/25 11:38:42;;;;;;;;;11.00;8.00;;;;;20.41;43.02;101550.94;4995053;28;51178;-50
2021/10/25 11:41:08;;;;;;;;;6.25;6.25;;;;;20.41;42.97;101556.44;4994657;28;51298;-48
2021/10/25 11:43:34;;;;;;;;;8.75;8.00;;;;;20.41;42.95;101553.69;4997707;28;51365;-45
2021/10/25 11:45:59;;;;;;;;;9.50;9.00;;;;;20.42;42.84;101557.28;4997802;28;51100;-47
2021/10/25 11:48:31;;;;;;;;;8.75;7.00;;;;;20.42;42.94;101557.28;4997903;28;51076;-52
2021/10/25 11:51:01;;;;;;;;;10.00;8.75;;;;;20.40;43.07;101551.13;4997912;28;51019;-51
2021/10/25 11:53:29;;;;;;;;;13.25;7.25;;;;;20.41;42.78;101555.59;4997802;28;50964;-50
2021/10/25 11:55:55;;;;;;;;;6.00;5.00;;;;;20.41;42.82;101547.34;4997773;28;51663;-51
2021/10/25 11:58:23;;;;;;;;;8.75;6.75;;;;;20.41;42.66;101552.84;4998037;28;51146;-47
2021/10/25 12:00:52;;;;;;;;;11.50;7.25;;;;;20.40;42.71;101554.75;4998200;28;51050;-48
2021/10/25 12:03:26;;;;;;;;;11.50;9.00;;;;;20.39;42.84;101547.53;5001471;28;51371;-46
2021/10/25 12:05:51;;;;;;;;;9.25;6.75;;;;;20.39;43.14;101554.94;5017434;28;52522;-46
2021/10/25 12:08:17;;;;;;;;;9.50;8.25;;;;;20.38;43.00;101550.50;5017525;28;51060;-48
2021/10/25 12:10:44;;;;;;;;;10.00;7.25;;;;;20.37;43.10;101546.06;5017675;28;51024;-48
2021/10/25 12:13:10;;;;;;;;;7.50;6.25;;;;;20.38;43.00;101550.50;5017811;28;51161;-47
2021/10/25 12:15:42;;;;;;;;;5.75;5.75;;;;;20.37;42.94;101546.06;5017095;28;51050;-51
2021/10/25 12:18:08;;;;;;;;;8.25;6.25;;;;;20.36;43.09;101547.97;5017456;28;51290;-51
2021/10/25 12:20:37;;;;;;;;;9.00;8.25;;;;;20.36;43.17;101539.69;5017345;28;50951;-48
2021/10/25 12:23:05;;;;;;;;;8.00;7.00;;;;;20.36;42.79;101541.59;5017987;28;51058;-47
2021/10/25 12:25:33;;;;;;;;;7.25;6.00;;;;;20.36;42.78;101545.22;5017088;28;51041;-50
2021/10/25 12:28:00;;;;;;;;;9.25;6.00;;;;;20.36;43.11;101530.59;4999567;28;50940;-50
2021/10/25 12:30:27;;;;;;;;;8.75;7.25;;;;;20.36;42.87;101531.44;4997842;28;51205;-46
2021/10/25 12:32:59;;;;;;;;;8.50;7.25;;;;;20.36;43.19;101527.84;4997554;28;51237;-46
2021/10/25 12:35:43;;;;;;;;;8.00;7.50;;;;;20.37;43.18;101521.28;4997001;28;51339;-45
2021/10/25 12:38:12;;;;;;;;;6.25;6.25;;;;;20.37;42.84;101510.28;4997151;28;51527;-50
2021/10/25 12:40:40;;;;;;;;;8.25;7.50;;;;;20.36;42.78;101503.94;4997037;28;51231;-46
2021/10/25 12:43:07;;;;;;;;;7.00;7.00;;;;;20.36;42.98;101503.09;4997056;28;51121;-47
2021/10/25 12:45:43;;;;;;;;;7.00;6.75;;;;;20.36;43.13;101500.34;4996690;28;51974;-44
2021/10/25 12:48:11;;;;;;;;;10.25;6.00;;;;;20.36;42.77;101500.34;4997220;28;51393;-52
2021/10/25 12:50:38;;;;;;;;;7.00;6.00;;;;;20.36;42.83;101508.59;4996807;28;51079;-45
2021/10/25 12:53:06;;;;;;;;;8.50;8.50;;;;;20.36;42.94;101508.59;4996758;28;51347;-45
2021/10/25 12:55:31;;;;;;;;;8.75;8.00;;;;;20.36;43.05;101509.44;4996698;28;50993;-49
2021/10/25 12:57:57;;;;;;;;;6.00;6.00;;;;;20.36;43.43;101506.69;4978897;28;51102;-51
2021/10/25 13:00:24;;;;;;;;;8.75;6.50;;;;;20.36;42.98;101503.09;4997091;28;51049;-51
2021/10/25 13:02:53;;;;;;;;;5.75;5.75;;;;;20.37;43.07;101510.28;4996762;28;50979;-48
2021/10/25 13:05:31;;;;;;;;;8.25;6.50;;;;;20.35;43.08;101507.75;5016605;28;52672;-49
2021/10/25 13:07:59;;;;;;;;;7.00;7.00;;;;;20.38;43.10;101509.22;5016471;28;51525;-49